Toll Gate Corners, NY

5:37 AM EST on December 07, 2016 (GMT -0500)
| | Change Station
Active Advisory: Lake Effect Snow Watch

Elev -9999 ft 0.00 °N, 0.00 °E | Updated

Heavy Rain
Heavy Rain
°F
Feels Like °F
N
Wind Variable Wind from North
Gusts mph

Today
High -- | Low -- °F
--% Chance of Precip.
Yesterday
High -- | Low -- °F
Precip. -- in
Pressure 29.86 in
Visibility 3.0 miles
Clouds Mostly Cloudy 1100 ft
Overcast 1800 ft
Dew Point Not available.
Humidity Not available.
Rainfall --
Snow Depth Not available.
7:22 AM 4:31 PM
Waxing Crescent, 51% visible
METAR KN03 071015Z AUTO 23006KT 3SM +RA BKN011 OVC018 01/01 A2986 RMK AO2
Pressure 29.86 in
Visibility 3.0 miles
Clouds Mostly Cloudy 1100 ft
Overcast 1800 ft
Dew Point Not available.
Humidity Not available.
Rainfall --
Snow Depth Not available.
7:22 AM 4:31 PM
Waxing Crescent, 51% visible
METAR KN03 071015Z AUTO 23006KT 3SM +RA BKN011 OVC018 01/01 A2986 RMK AO2

10-Day Weather Forecast

Almanac

Astronomy

Dec. 07, 2016 Rise Set
Actual Time
Civil Twilight
Nautical Twilight
Astronomical Twilight
Moon
Length of Visible Light
Length of Day
Tomorrow will be .
, % of the Moon is Illuminated

Today's Extremes

State Highs State Lows

Community

WunderPhotos

Upload Photos

1,956,111 photos uploaded!

WunderBlog® & News

Nearby

Air Quality

  Air Quality AQ Index Pollutant
Not available.

Snow Depth

Station Depth Elevation

Earthquake Activity

City Distance Mag. Time & Date
Minimum magnitude displayed is 2.5.

Coastal Water Temperatures

Place Temperature

Stations

Nearby Weather Stations

Station Location Temp. Windchill Dew Point Humidity Wind Precip. Elev Updated Type
                   

Watches & Warnings

Lake Effect Snow Watch
Issued: 3:57 AM EST Dec. 7, 2016 – National Weather Service

... Lake effect snow watch remains in effect from Thursday evening
through late Friday night...

* locations... southern Oneida, southern Cayuga, Onondaga and
Madison counties.

* Accumulations... a foot or more of snow possible in the most
persistent lake effect snow bands.

* Timing... mainly after midnight Thursday night through Friday
night.

* Impacts... heavy lake effect snow will lead to significant
accumulations of snow along with very poor visibilities at
times. This will result in very dangerous travel.

* Winds... west 10 to 20 mph with gusts up to 30 mph.

* Temperatures... in the mid 20s.

Precautionary/preparedness actions...

A lake effect snow watch means there is a potential for a large
amount of snow in only a few hours. Visibilities and depth of
snow can vary greatly... impacting travel significantly. Continue
to monitor the latest forecasts.



Mundschenk